sensor_id;sensor_type;location;lat;lon;timestamp;P1;durP1;ratioP1;P2;durP2;ratioP2
11230;SDS011;5672;51.060;3.734;2023-04-24T00:02:12;16.10;;;11.33;;
11230;SDS011;5672;51.060;3.734;2023-04-24T00:04:38;13.30;;;10.17;;
11230;SDS011;5672;51.060;3.734;2023-04-24T00:07:11;13.60;;;10.67;;
11230;SDS011;5672;51.060;3.734;2023-04-24T00:09:38;12.53;;;10.30;;
11230;SDS011;5672;51.060;3.734;2023-04-24T00:12:04;13.57;;;10.53;;
11230;SDS011;5672;51.060;3.734;2023-04-24T00:14:30;15.70;;;11.30;;
11230;SDS011;5672;51.060;3.734;2023-04-24T00:16:56;14.97;;;10.00;;
11230;SDS011;5672;51.060;3.734;2023-04-24T00:19:22;15.03;;;10.93;;
11230;SDS011;5672;51.060;3.734;2023-04-24T00:21:48;13.00;;;9.67;;
11230;SDS011;5672;51.060;3.734;2023-04-24T00:24:15;14.27;;;9.60;;
11230;SDS011;5672;51.060;3.734;2023-04-24T00:26:41;15.90;;;10.23;;
11230;SDS011;5672;51.060;3.734;2023-04-24T00:29:07;14.97;;;10.17;;
11230;SDS011;5672;51.060;3.734;2023-04-24T00:31:33;11.63;;;9.87;;
11230;SDS011;5672;51.060;3.734;2023-04-24T00:34:00;10.83;;;9.73;;
11230;SDS011;5672;51.060;3.734;2023-04-24T00:36:26;11.27;;;9.60;;
11230;SDS011;5672;51.060;3.734;2023-04-24T00:38:53;10.37;;;9.30;;
11230;SDS011;5672;51.060;3.734;2023-04-24T00:41:19;11.40;;;9.80;;
11230;SDS011;5672;51.060;3.734;2023-04-24T00:43:45;11.13;;;10.03;;
11230;SDS011;5672;51.060;3.734;2023-04-24T00:46:12;10.03;;;8.80;;
11230;SDS011;5672;51.060;3.734;2023-04-24T00:48:41;8.90;;;8.00;;
11230;SDS011;5672;51.060;3.734;2023-04-24T00:51:07;10.33;;;8.77;;
11230;SDS011;5672;51.060;3.734;2023-04-24T00:53:33;9.20;;;8.07;;
11230;SDS011;5672;51.060;3.734;2023-04-24T00:55:59;8.73;;;7.57;;
11230;SDS011;5672;51.060;3.734;2023-04-24T00:58:25;7.83;;;7.20;;
11230;SDS011;5672;51.060;3.734;2023-04-24T01:00:52;6.90;;;6.37;;
11230;SDS011;5672;51.060;3.734;2023-04-24T01:03:19;7.27;;;6.77;;
11230;SDS011;5672;51.060;3.734;2023-04-24T01:05:46;7.27;;;6.77;;
11230;SDS011;5672;51.060;3.734;2023-04-24T01:08:12;8.17;;;7.03;;
11230;SDS011;5672;51.060;3.734;2023-04-24T01:10:38;6.70;;;6.20;;
11230;SDS011;5672;51.060;3.734;2023-04-24T01:13:07;7.70;;;6.30;;
11230;SDS011;5672;51.060;3.734;2023-04-24T01:15:34;7.70;;;7.07;;
11230;SDS011;5672;51.060;3.734;2023-04-24T01:18:00;8.03;;;7.23;;
11230;SDS011;5672;51.060;3.734;2023-04-24T01:20:26;10.47;;;7.83;;
11230;SDS011;5672;51.060;3.734;2023-04-24T01:22:54;8.43;;;7.63;;
11230;SDS011;5672;51.060;3.734;2023-04-24T01:25:21;8.07;;;7.27;;
11230;SDS011;5672;51.060;3.734;2023-04-24T01:27:47;8.53;;;7.60;;
11230;SDS011;5672;51.060;3.734;2023-04-24T01:30:13;7.87;;;7.07;;
11230;SDS011;5672;51.060;3.734;2023-04-24T01:32:40;8.90;;;8.10;;
11230;SDS011;5672;51.060;3.734;2023-04-24T01:35:06;9.50;;;7.47;;
11230;SDS011;5672;51.060;3.734;2023-04-24T01:37:32;9.20;;;8.40;;
11230;SDS011;5672;51.060;3.734;2023-04-24T01:39:58;8.87;;;8.00;;
11230;SDS011;5672;51.060;3.734;2023-04-24T01:42:25;8.30;;;7.60;;
11230;SDS011;5672;51.060;3.734;2023-04-24T01:44:51;8.67;;;7.97;;
11230;SDS011;5672;51.060;3.734;2023-04-24T01:47:17;9.43;;;8.57;;
11230;SDS011;5672;51.060;3.734;2023-04-24T01:49:43;9.80;;;9.00;;
11230;SDS011;5672;51.060;3.734;2023-04-24T01:52:11;10.47;;;9.57;;
11230;SDS011;5672;51.060;3.734;2023-04-24T01:54:37;10.53;;;9.53;;
11230;SDS011;5672;51.060;3.734;2023-04-24T01:57:03;10.90;;;9.87;;
11230;SDS011;5672;51.060;3.734;2023-04-24T01:59:29;11.50;;;9.77;;
11230;SDS011;5672;51.060;3.734;2023-04-24T02:01:55;10.80;;;9.80;;
11230;SDS011;5672;51.060;3.734;2023-04-24T02:04:21;11.60;;;10.40;;
11230;SDS011;5672;51.060;3.734;2023-04-24T02:06:47;11.13;;;10.13;;
11230;SDS011;5672;51.060;3.734;2023-04-24T02:09:14;11.33;;;10.33;;
11230;SDS011;5672;51.060;3.734;2023-04-24T02:11:39;12.00;;;10.80;;
11230;SDS011;5672;51.060;3.734;2023-04-24T02:14:05;12.00;;;10.87;;
11230;SDS011;5672;51.060;3.734;2023-04-24T02:16:31;12.00;;;10.87;;
11230;SDS011;5672;51.060;3.734;2023-04-24T02:18:58;11.63;;;10.67;;
11230;SDS011;5672;51.060;3.734;2023-04-24T02:21:24;11.50;;;10.50;;
11230;SDS011;5672;51.060;3.734;2023-04-24T02:23:50;11.83;;;10.60;;
11230;SDS011;5672;51.060;3.734;2023-04-24T02:26:16;11.07;;;10.17;;
11230;SDS011;5672;51.060;3.734;2023-04-24T02:28:43;12.10;;;11.10;;
11230;SDS011;5672;51.060;3.734;2023-04-24T02:31:09;11.10;;;10.10;;
11230;SDS011;5672;51.060;3.734;2023-04-24T02:33:35;11.87;;;10.77;;
11230;SDS011;5672;51.060;3.734;2023-04-24T02:36:01;12.10;;;10.97;;
11230;SDS011;5672;51.060;3.734;2023-04-24T02:38:28;11.27;;;10.23;;
11230;SDS011;5672;51.060;3.734;2023-04-24T02:40:54;11.90;;;10.80;;
11230;SDS011;5672;51.060;3.734;2023-04-24T02:43:20;11.57;;;10.57;;
11230;SDS011;5672;51.060;3.734;2023-04-24T02:45:46;11.27;;;10.17;;
11230;SDS011;5672;51.060;3.734;2023-04-24T02:48:12;10.57;;;9.57;;
11230;SDS011;5672;51.060;3.734;2023-04-24T02:50:38;11.13;;;9.87;;
11230;SDS011;5672;51.060;3.734;2023-04-24T02:53:04;10.23;;;9.00;;
11230;SDS011;5672;51.060;3.734;2023-04-24T02:55:30;9.03;;;8.13;;
11230;SDS011;5672;51.060;3.734;2023-04-24T02:57:56;12.20;;;8.83;;
11230;SDS011;5672;51.060;3.734;2023-04-24T03:00:22;7.50;;;6.80;;
11230;SDS011;5672;51.060;3.734;2023-04-24T03:02:48;6.10;;;5.57;;
11230;SDS011;5672;51.060;3.734;2023-04-24T03:05:14;7.30;;;4.93;;
11230;SDS011;5672;51.060;3.734;2023-04-24T03:07:40;9.90;;;5.10;;
11230;SDS011;5672;51.060;3.734;2023-04-24T03:10:07;5.83;;;4.40;;
11230;SDS011;5672;51.060;3.734;2023-04-24T03:12:33;8.07;;;3.90;;
11230;SDS011;5672;51.060;3.734;2023-04-24T03:14:59;5.03;;;3.90;;
11230;SDS011;5672;51.060;3.734;2023-04-24T03:17:25;3.83;;;3.50;;
11230;SDS011;5672;51.060;3.734;2023-04-24T03:19:51;8.03;;;4.27;;
11230;SDS011;5672;51.060;3.734;2023-04-24T03:22:17;6.73;;;4.70;;
11230;SDS011;5672;51.060;3.734;2023-04-24T03:24:43;7.37;;;5.30;;
11230;SDS011;5672;51.060;3.734;2023-04-24T03:27:08;6.27;;;4.50;;
11230;SDS011;5672;51.060;3.734;2023-04-24T03:29:35;6.33;;;5.10;;
11230;SDS011;5672;51.060;3.734;2023-04-24T03:32:00;9.47;;;5.00;;
11230;SDS011;5672;51.060;3.734;2023-04-24T03:34:26;6.40;;;5.00;;
11230;SDS011;5672;51.060;3.734;2023-04-24T03:36:53;10.63;;;6.30;;
11230;SDS011;5672;51.060;3.734;2023-04-24T03:39:19;8.03;;;6.67;;
11230;SDS011;5672;51.060;3.734;2023-04-24T03:41:45;7.80;;;7.00;;
11230;SDS011;5672;51.060;3.734;2023-04-24T03:44:10;10.33;;;8.20;;
11230;SDS011;5672;51.060;3.734;2023-04-24T03:46:36;10.67;;;8.23;;
11230;SDS011;5672;51.060;3.734;2023-04-24T03:49:04;9.90;;;8.00;;
11230;SDS011;5672;51.060;3.734;2023-04-24T03:51:30;13.43;;;8.73;;
11230;SDS011;5672;51.060;3.734;2023-04-24T03:53:56;12.00;;;8.93;;
11230;SDS011;5672;51.060;3.734;2023-04-24T03:56:22;11.80;;;8.00;;
11230;SDS011;5672;51.060;3.734;2023-04-24T03:58:48;10.80;;;8.77;;
11230;SDS011;5672;51.060;3.734;2023-04-24T04:01:14;11.50;;;9.20;;
11230;SDS011;5672;51.060;3.734;2023-04-24T04:03:41;14.47;;;8.67;;
11230;SDS011;5672;51.060;3.734;2023-04-24T04:06:07;10.47;;;8.80;;
11230;SDS011;5672;51.060;3.734;2023-04-24T04:08:33;10.43;;;8.83;;
11230;SDS011;5672;51.060;3.734;2023-04-24T04:10:59;15.33;;;10.30;;
11230;SDS011;5672;51.060;3.734;2023-04-24T04:13:25;13.97;;;9.90;;
11230;SDS011;5672;51.060;3.734;2023-04-24T04:15:51;14.53;;;9.53;;
11230;SDS011;5672;51.060;3.734;2023-04-24T04:18:17;16.70;;;9.70;;
11230;SDS011;5672;51.060;3.734;2023-04-24T04:20:43;16.47;;;9.47;;
11230;SDS011;5672;51.060;3.734;2023-04-24T04:23:09;14.30;;;9.60;;
11230;SDS011;5672;51.060;3.734;2023-04-24T04:25:35;20.57;;;9.63;;
11230;SDS011;5672;51.060;3.734;2023-04-24T04:28:01;16.03;;;9.13;;
11230;SDS011;5672;51.060;3.734;2023-04-24T04:30:27;13.50;;;9.83;;
11230;SDS011;5672;51.060;3.734;2023-04-24T04:32:57;13.77;;;9.30;;
11230;SDS011;5672;51.060;3.734;2023-04-24T04:35:23;13.57;;;9.60;;
11230;SDS011;5672;51.060;3.734;2023-04-24T04:37:49;12.67;;;9.07;;
11230;SDS011;5672;51.060;3.734;2023-04-24T04:40:16;14.33;;;9.50;;
11230;SDS011;5672;51.060;3.734;2023-04-24T04:42:42;13.60;;;9.80;;
11230;SDS011;5672;51.060;3.734;2023-04-24T04:45:11;14.33;;;9.97;;
11230;SDS011;5672;51.060;3.734;2023-04-24T04:47:37;14.23;;;9.33;;
11230;SDS011;5672;51.060;3.734;2023-04-24T04:50:04;15.57;;;10.20;;
11230;SDS011;5672;51.060;3.734;2023-04-24T04:52:30;11.83;;;9.07;;
11230;SDS011;5672;51.060;3.734;2023-04-24T04:54:56;13.20;;;9.47;;
11230;SDS011;5672;51.060;3.734;2023-04-24T04:57:22;15.17;;;9.60;;
11230;SDS011;5672;51.060;3.734;2023-04-24T04:59:48;12.40;;;10.17;;
11230;SDS011;5672;51.060;3.734;2023-04-24T05:02:14;13.00;;;9.00;;
11230;SDS011;5672;51.060;3.734;2023-04-24T05:04:40;12.87;;;9.23;;
11230;SDS011;5672;51.060;3.734;2023-04-24T05:07:06;11.83;;;9.50;;
11230;SDS011;5672;51.060;3.734;2023-04-24T05:09:32;16.63;;;9.40;;
11230;SDS011;5672;51.060;3.734;2023-04-24T05:11:58;11.97;;;9.37;;
11230;SDS011;5672;51.060;3.734;2023-04-24T05:14:24;13.27;;;9.83;;
11230;SDS011;5672;51.060;3.734;2023-04-24T05:16:50;14.67;;;9.77;;
11230;SDS011;5672;51.060;3.734;2023-04-24T05:19:16;16.83;;;10.33;;
11230;SDS011;5672;51.060;3.734;2023-04-24T05:21:42;19.70;;;10.40;;
11230;SDS011;5672;51.060;3.734;2023-04-24T05:24:08;11.77;;;9.93;;
11230;SDS011;5672;51.060;3.734;2023-04-24T05:26:34;14.80;;;10.80;;
11230;SDS011;5672;51.060;3.734;2023-04-24T05:29:00;20.17;;;11.47;;
11230;SDS011;5672;51.060;3.734;2023-04-24T05:31:27;14.00;;;11.47;;
11230;SDS011;5672;51.060;3.734;2023-04-24T05:33:53;15.90;;;11.13;;
11230;SDS011;5672;51.060;3.734;2023-04-24T05:36:19;15.97;;;12.33;;
11230;SDS011;5672;51.060;3.734;2023-04-24T05:38:45;16.83;;;11.23;;
11230;SDS011;5672;51.060;3.734;2023-04-24T05:41:11;20.40;;;12.83;;
11230;SDS011;5672;51.060;3.734;2023-04-24T05:43:37;21.07;;;12.57;;
11230;SDS011;5672;51.060;3.734;2023-04-24T05:46:03;18.53;;;12.27;;
11230;SDS011;5672;51.060;3.734;2023-04-24T05:48:29;23.57;;;12.10;;
11230;SDS011;5672;51.060;3.734;2023-04-24T05:50:55;19.70;;;13.50;;
11230;SDS011;5672;51.060;3.734;2023-04-24T05:53:21;18.63;;;12.63;;
11230;SDS011;5672;51.060;3.734;2023-04-24T05:55:47;19.10;;;12.90;;
11230;SDS011;5672;51.060;3.734;2023-04-24T05:58:13;15.03;;;12.67;;
11230;SDS011;5672;51.060;3.734;2023-04-24T06:00:40;19.83;;;12.20;;
11230;SDS011;5672;51.060;3.734;2023-04-24T06:03:07;17.63;;;12.10;;
11230;SDS011;5672;51.060;3.734;2023-04-24T06:05:33;20.20;;;12.67;;
11230;SDS011;5672;51.060;3.734;2023-04-24T06:08:00;19.87;;;12.57;;
11230;SDS011;5672;51.060;3.734;2023-04-24T06:10:26;20.80;;;12.87;;
11230;SDS011;5672;51.060;3.734;2023-04-24T06:12:52;22.87;;;13.87;;
11230;SDS011;5672;51.060;3.734;2023-04-24T06:15:21;24.50;;;14.67;;
11230;SDS011;5672;51.060;3.734;2023-04-24T06:17:47;20.13;;;13.30;;
11230;SDS011;5672;51.060;3.734;2023-04-24T06:20:13;20.30;;;13.50;;
11230;SDS011;5672;51.060;3.734;2023-04-24T06:22:39;20.97;;;14.20;;
11230;SDS011;5672;51.060;3.734;2023-04-24T06:25:05;22.63;;;13.13;;
11230;SDS011;5672;51.060;3.734;2023-04-24T06:27:32;18.53;;;12.60;;
11230;SDS011;5672;51.060;3.734;2023-04-24T06:29:58;21.60;;;13.00;;
11230;SDS011;5672;51.060;3.734;2023-04-24T06:32:24;21.17;;;13.67;;
11230;SDS011;5672;51.060;3.734;2023-04-24T06:34:51;26.43;;;13.63;;
11230;SDS011;5672;51.060;3.734;2023-04-24T06:37:18;17.67;;;13.17;;
11230;SDS011;5672;51.060;3.734;2023-04-24T06:39:44;23.43;;;11.80;;
11230;SDS011;5672;51.060;3.734;2023-04-24T06:42:10;19.70;;;11.23;;
11230;SDS011;5672;51.060;3.734;2023-04-24T06:44:36;20.10;;;10.67;;
11230;SDS011;5672;51.060;3.734;2023-04-24T06:47:06;15.30;;;9.70;;
11230;SDS011;5672;51.060;3.734;2023-04-24T06:49:33;20.33;;;10.57;;
11230;SDS011;5672;51.060;3.734;2023-04-24T06:51:59;19.30;;;10.03;;
11230;SDS011;5672;51.060;3.734;2023-04-24T06:54:25;19.07;;;10.57;;
11230;SDS011;5672;51.060;3.734;2023-04-24T06:56:51;21.43;;;10.03;;
11230;SDS011;5672;51.060;3.734;2023-04-24T06:59:17;16.93;;;9.97;;
11230;SDS011;5672;51.060;3.734;2023-04-24T07:01:43;18.53;;;9.87;;
11230;SDS011;5672;51.060;3.734;2023-04-24T07:04:10;25.23;;;11.40;;
11230;SDS011;5672;51.060;3.734;2023-04-24T07:06:37;19.00;;;9.47;;
11230;SDS011;5672;51.060;3.734;2023-04-24T07:09:04;16.10;;;9.73;;
11230;SDS011;5672;51.060;3.734;2023-04-24T07:11:30;18.97;;;9.87;;
11230;SDS011;5672;51.060;3.734;2023-04-24T07:13:57;23.63;;;9.60;;
11230;SDS011;5672;51.060;3.734;2023-04-24T07:16:23;18.27;;;8.97;;
11230;SDS011;5672;51.060;3.734;2023-04-24T07:18:50;17.37;;;8.57;;
11230;SDS011;5672;51.060;3.734;2023-04-24T07:21:16;16.63;;;7.37;;
11230;SDS011;5672;51.060;3.734;2023-04-24T07:23:42;11.63;;;7.53;;
11230;SDS011;5672;51.060;3.734;2023-04-24T07:26:08;15.33;;;7.33;;
11230;SDS011;5672;51.060;3.734;2023-04-24T07:28:34;11.70;;;6.00;;
11230;SDS011;5672;51.060;3.734;2023-04-24T07:31:00;17.57;;;6.57;;
11230;SDS011;5672;51.060;3.734;2023-04-24T07:33:26;22.60;;;7.07;;
11230;SDS011;5672;51.060;3.734;2023-04-24T07:35:52;9.47;;;6.30;;
11230;SDS011;5672;51.060;3.734;2023-04-24T07:38:18;14.73;;;5.17;;
11230;SDS011;5672;51.060;3.734;2023-04-24T07:40:48;16.53;;;5.63;;
11230;SDS011;5672;51.060;3.734;2023-04-24T07:43:14;10.73;;;5.07;;
11230;SDS011;5672;51.060;3.734;2023-04-24T07:45:40;16.30;;;5.50;;
11230;SDS011;5672;51.060;3.734;2023-04-24T07:48:06;9.60;;;5.53;;
11230;SDS011;5672;51.060;3.734;2023-04-24T07:50:33;11.97;;;5.73;;
11230;SDS011;5672;51.060;3.734;2023-04-24T07:53:01;15.70;;;6.33;;
11230;SDS011;5672;51.060;3.734;2023-04-24T07:55:27;13.80;;;6.83;;
11230;SDS011;5672;51.060;3.734;2023-04-24T07:57:53;12.10;;;6.40;;
11230;SDS011;5672;51.060;3.734;2023-04-24T08:00:19;15.87;;;6.20;;
11230;SDS011;5672;51.060;3.734;2023-04-24T08:02:45;17.67;;;6.43;;
11230;SDS011;5672;51.060;3.734;2023-04-24T08:05:11;13.83;;;6.57;;
11230;SDS011;5672;51.060;3.734;2023-04-24T08:07:37;18.40;;;6.90;;
11230;SDS011;5672;51.060;3.734;2023-04-24T08:10:03;20.63;;;6.40;;
11230;SDS011;5672;51.060;3.734;2023-04-24T08:12:30;12.47;;;6.00;;
11230;SDS011;5672;51.060;3.734;2023-04-24T08:14:56;12.90;;;5.57;;
11230;SDS011;5672;51.060;3.734;2023-04-24T08:17:22;13.10;;;6.23;;
11230;SDS011;5672;51.060;3.734;2023-04-24T08:19:48;13.30;;;5.93;;
11230;SDS011;5672;51.060;3.734;2023-04-24T08:22:16;13.53;;;6.00;;
11230;SDS011;5672;51.060;3.734;2023-04-24T08:24:42;13.47;;;5.27;;
11230;SDS011;5672;51.060;3.734;2023-04-24T08:27:08;9.90;;;5.40;;
11230;SDS011;5672;51.060;3.734;2023-04-24T08:29:35;12.10;;;5.83;;
11230;SDS011;5672;51.060;3.734;2023-04-24T08:32:01;10.27;;;5.93;;
11230;SDS011;5672;51.060;3.734;2023-04-24T08:34:27;14.70;;;5.80;;
11230;SDS011;5672;51.060;3.734;2023-04-24T08:36:53;17.43;;;6.00;;
11230;SDS011;5672;51.060;3.734;2023-04-24T08:39:19;12.03;;;5.70;;
11230;SDS011;5672;51.060;3.734;2023-04-24T08:41:45;14.23;;;5.60;;
11230;SDS011;5672;51.060;3.734;2023-04-24T08:44:14;9.67;;;4.93;;
11230;SDS011;5672;51.060;3.734;2023-04-24T08:46:41;9.77;;;4.73;;
11230;SDS011;5672;51.060;3.734;2023-04-24T08:49:08;9.23;;;4.53;;
11230;SDS011;5672;51.060;3.734;2023-04-24T08:51:35;8.13;;;4.93;;
11230;SDS011;5672;51.060;3.734;2023-04-24T08:54:02;12.13;;;4.83;;
11230;SDS011;5672;51.060;3.734;2023-04-24T08:56:28;13.27;;;4.57;;
11230;SDS011;5672;51.060;3.734;2023-04-24T08:58:55;12.27;;;4.93;;
11230;SDS011;5672;51.060;3.734;2023-04-24T09:01:22;8.77;;;5.63;;
11230;SDS011;5672;51.060;3.734;2023-04-24T09:03:49;9.87;;;4.63;;
11230;SDS011;5672;51.060;3.734;2023-04-24T09:06:16;8.70;;;4.97;;
11230;SDS011;5672;51.060;3.734;2023-04-24T09:08:43;7.17;;;4.50;;
11230;SDS011;5672;51.060;3.734;2023-04-24T09:11:10;8.17;;;4.53;;
11230;SDS011;5672;51.060;3.734;2023-04-24T09:13:37;12.63;;;4.47;;
11230;SDS011;5672;51.060;3.734;2023-04-24T09:16:05;13.80;;;5.37;;
11230;SDS011;5672;51.060;3.734;2023-04-24T09:18:31;10.63;;;4.90;;
11230;SDS011;5672;51.060;3.734;2023-04-24T09:20:59;8.37;;;5.10;;
11230;SDS011;5672;51.060;3.734;2023-04-24T09:23:27;10.07;;;5.43;;
11230;SDS011;5672;51.060;3.734;2023-04-24T09:25:56;14.90;;;5.03;;
11230;SDS011;5672;51.060;3.734;2023-04-24T09:28:32;9.57;;;4.30;;
11230;SDS011;5672;51.060;3.734;2023-04-24T09:31:17;8.60;;;5.00;;
11230;SDS011;5672;51.060;3.734;2023-04-24T09:33:57;10.03;;;4.77;;
11230;SDS011;5672;51.060;3.734;2023-04-24T09:36:27;5.57;;;4.40;;
11230;SDS011;5672;51.060;3.734;2023-04-24T09:38:57;9.93;;;4.80;;
11230;SDS011;5672;51.060;3.734;2023-04-24T09:41:23;7.07;;;4.75;;
11230;SDS011;5672;51.060;3.734;2023-04-24T09:43:49;8.27;;;4.77;;
11230;SDS011;5672;51.060;3.734;2023-04-24T09:46:15;10.67;;;4.97;;
11230;SDS011;5672;51.060;3.734;2023-04-24T09:48:44;8.77;;;5.73;;
11230;SDS011;5672;51.060;3.734;2023-04-24T09:51:10;4.97;;;4.47;;
11230;SDS011;5672;51.060;3.734;2023-04-24T09:53:36;9.00;;;4.70;;
11230;SDS011;5672;51.060;3.734;2023-04-24T09:56:03;9.47;;;4.50;;
11230;SDS011;5672;51.060;3.734;2023-04-24T09:58:32;7.87;;;5.23;;
11230;SDS011;5672;51.060;3.734;2023-04-24T10:01:00;8.57;;;5.00;;
11230;SDS011;5672;51.060;3.734;2023-04-24T10:03:29;5.87;;;4.03;;
11230;SDS011;5672;51.060;3.734;2023-04-24T10:05:58;10.20;;;5.10;;
11230;SDS011;5672;51.060;3.734;2023-04-24T10:08:24;7.73;;;4.50;;
11230;SDS011;5672;51.060;3.734;2023-04-24T10:10:50;9.80;;;4.80;;
11230;SDS011;5672;51.060;3.734;2023-04-24T10:13:16;5.83;;;4.57;;
11230;SDS011;5672;51.060;3.734;2023-04-24T10:15:42;7.90;;;4.57;;
11230;SDS011;5672;51.060;3.734;2023-04-24T10:18:09;9.67;;;4.63;;
11230;SDS011;5672;51.060;3.734;2023-04-24T10:20:35;9.97;;;4.83;;
11230;SDS011;5672;51.060;3.734;2023-04-24T10:23:02;10.27;;;4.60;;
11230;SDS011;5672;51.060;3.734;2023-04-24T10:25:30;11.10;;;4.80;;
11230;SDS011;5672;51.060;3.734;2023-04-24T10:27:56;10.57;;;4.50;;
11230;SDS011;5672;51.060;3.734;2023-04-24T10:30:24;8.70;;;4.90;;
11230;SDS011;5672;51.060;3.734;2023-04-24T10:32:50;8.00;;;4.40;;
11230;SDS011;5672;51.060;3.734;2023-04-24T10:35:17;7.07;;;4.20;;
11230;SDS011;5672;51.060;3.734;2023-04-24T10:37:47;9.03;;;5.20;;
11230;SDS011;5672;51.060;3.734;2023-04-24T10:40:18;9.90;;;4.77;;
11230;SDS011;5672;51.060;3.734;2023-04-24T10:42:47;5.90;;;4.27;;
11230;SDS011;5672;51.060;3.734;2023-04-24T10:45:19;6.27;;;3.77;;
11230;SDS011;5672;51.060;3.734;2023-04-24T10:47:56;11.07;;;4.13;;
11230;SDS011;5672;51.060;3.734;2023-04-24T10:50:23;7.93;;;4.40;;
11230;SDS011;5672;51.060;3.734;2023-04-24T10:52:49;6.93;;;4.30;;
11230;SDS011;5672;51.060;3.734;2023-04-24T10:55:36;7.13;;;3.87;;
11230;SDS011;5672;51.060;3.734;2023-04-24T10:58:03;7.17;;;3.90;;
11230;SDS011;5672;51.060;3.734;2023-04-24T11:00:30;5.73;;;4.03;;
11230;SDS011;5672;51.060;3.734;2023-04-24T11:02:56;8.33;;;3.83;;
11230;SDS011;5672;51.060;3.734;2023-04-24T11:05:22;9.10;;;3.93;;
11230;SDS011;5672;51.060;3.734;2023-04-24T11:08:14;4.57;;;3.47;;
11230;SDS011;5672;51.060;3.734;2023-04-24T11:10:44;5.07;;;3.67;;
11230;SDS011;5672;51.060;3.734;2023-04-24T11:13:12;6.00;;;3.40;;
11230;SDS011;5672;51.060;3.734;2023-04-24T11:15:41;6.83;;;3.87;;
11230;SDS011;5672;51.060;3.734;2023-04-24T11:18:23;4.17;;;3.60;;
11230;SDS011;5672;51.060;3.734;2023-04-24T11:20:49;4.90;;;3.43;;
11230;SDS011;5672;51.060;3.734;2023-04-24T11:23:15;9.00;;;4.07;;
11230;SDS011;5672;51.060;3.734;2023-04-24T11:25:42;6.67;;;4.07;;
11230;SDS011;5672;51.060;3.734;2023-04-24T11:28:08;6.30;;;3.90;;
11230;SDS011;5672;51.060;3.734;2023-04-24T11:30:41;7.30;;;4.10;;
11230;SDS011;5672;51.060;3.734;2023-04-24T11:33:07;4.27;;;3.90;;
11230;SDS011;5672;51.060;3.734;2023-04-24T11:35:38;6.37;;;4.07;;
11230;SDS011;5672;51.060;3.734;2023-04-24T11:38:05;5.23;;;3.33;;
11230;SDS011;5672;51.060;3.734;2023-04-24T11:40:32;5.00;;;3.60;;
11230;SDS011;5672;51.060;3.734;2023-04-24T11:42:59;4.80;;;3.00;;
11230;SDS011;5672;51.060;3.734;2023-04-24T11:45:26;5.85;;;3.80;;
11230;SDS011;5672;51.060;3.734;2023-04-24T11:47:52;5.53;;;3.50;;
11230;SDS011;5672;51.060;3.734;2023-04-24T11:50:19;5.70;;;4.00;;
11230;SDS011;5672;51.060;3.734;2023-04-24T11:52:46;6.27;;;3.90;;
11230;SDS011;5672;51.060;3.734;2023-04-24T12:00:29;5.40;;;3.07;;
11230;SDS011;5672;51.060;3.734;2023-04-24T12:03:29;6.63;;;3.20;;
11230;SDS011;5672;51.060;3.734;2023-04-24T12:05:48;4.57;;;3.47;;
11230;SDS011;5672;51.060;3.734;2023-04-24T12:08:29;6.00;;;3.40;;
11230;SDS011;5672;51.060;3.734;2023-04-24T12:10:55;8.70;;;4.17;;
11230;SDS011;5672;51.060;3.734;2023-04-24T12:13:21;7.77;;;3.47;;
11230;SDS011;5672;51.060;3.734;2023-04-24T12:15:47;5.80;;;3.27;;
11230;SDS011;5672;51.060;3.734;2023-04-24T12:18:16;4.80;;;3.03;;
11230;SDS011;5672;51.060;3.734;2023-04-24T12:20:42;5.00;;;3.00;;
11230;SDS011;5672;51.060;3.734;2023-04-24T12:23:08;3.77;;;2.50;;
11230;SDS011;5672;51.060;3.734;2023-04-24T12:25:34;4.30;;;2.20;;
11230;SDS011;5672;51.060;3.734;2023-04-24T12:30:29;5.43;;;2.60;;
11230;SDS011;5672;51.060;3.734;2023-04-24T12:32:57;7.13;;;2.90;;
11230;SDS011;5672;51.060;3.734;2023-04-24T12:35:24;6.97;;;2.03;;
11230;SDS011;5672;51.060;3.734;2023-04-24T12:37:50;3.50;;;2.03;;
11230;SDS011;5672;51.060;3.734;2023-04-24T12:40:17;4.27;;;2.03;;
11230;SDS011;5672;51.060;3.734;2023-04-24T12:42:44;4.10;;;2.23;;
11230;SDS011;5672;51.060;3.734;2023-04-24T12:45:10;3.87;;;1.83;;
11230;SDS011;5672;51.060;3.734;2023-04-24T12:47:37;5.00;;;2.00;;
11230;SDS011;5672;51.060;3.734;2023-04-24T12:50:03;5.37;;;2.27;;
11230;SDS011;5672;51.060;3.734;2023-04-24T12:52:30;3.47;;;2.40;;
11230;SDS011;5672;51.060;3.734;2023-04-24T12:54:58;3.50;;;2.00;;
11230;SDS011;5672;51.060;3.734;2023-04-24T12:57:24;4.63;;;1.83;;
11230;SDS011;5672;51.060;3.734;2023-04-24T12:59:52;4.30;;;2.10;;
11230;SDS011;5672;51.060;3.734;2023-04-24T13:02:18;5.72;;;2.22;;
11230;SDS011;5672;51.060;3.734;2023-04-24T13:04:44;3.63;;;1.93;;
11230;SDS011;5672;51.060;3.734;2023-04-24T13:07:11;71.73;;;13.47;;
11230;SDS011;5672;51.060;3.734;2023-04-24T13:09:37;10.97;;;3.67;;
11230;SDS011;5672;51.060;3.734;2023-04-24T13:12:03;6.95;;;3.55;;
11230;SDS011;5672;51.060;3.734;2023-04-24T13:14:30;4.43;;;2.70;;
11230;SDS011;5672;51.060;3.734;2023-04-24T13:16:56;6.40;;;4.40;;
11230;SDS011;5672;51.060;3.734;2023-04-24T13:19:24;7.80;;;3.63;;
11230;SDS011;5672;51.060;3.734;2023-04-24T13:21:51;4.23;;;3.00;;
11230;SDS011;5672;51.060;3.734;2023-04-24T13:24:17;4.83;;;3.30;;
11230;SDS011;5672;51.060;3.734;2023-04-24T13:26:43;4.87;;;2.50;;
11230;SDS011;5672;51.060;3.734;2023-04-24T13:29:09;4.27;;;2.30;;
11230;SDS011;5672;51.060;3.734;2023-04-24T13:31:35;2.17;;;2.07;;
11230;SDS011;5672;51.060;3.734;2023-04-24T13:34:04;3.10;;;2.37;;
11230;SDS011;5672;51.060;3.734;2023-04-24T13:36:30;2.67;;;2.20;;
11230;SDS011;5672;51.060;3.734;2023-04-24T13:38:56;3.23;;;1.90;;
11230;SDS011;5672;51.060;3.734;2023-04-24T13:41:22;4.17;;;1.70;;
11230;SDS011;5672;51.060;3.734;2023-04-24T13:43:48;3.57;;;1.67;;
11230;SDS011;5672;51.060;3.734;2023-04-24T13:46:14;2.33;;;1.90;;
11230;SDS011;5672;51.060;3.734;2023-04-24T13:48:40;3.20;;;1.70;;
11230;SDS011;5672;51.060;3.734;2023-04-24T13:51:06;3.03;;;1.57;;
11230;SDS011;5672;51.060;3.734;2023-04-24T13:53:32;5.77;;;2.03;;
11230;SDS011;5672;51.060;3.734;2023-04-24T13:56:01;2.43;;;1.47;;
11230;SDS011;5672;51.060;3.734;2023-04-24T13:58:27;2.97;;;1.43;;
11230;SDS011;5672;51.060;3.734;2023-04-24T14:00:53;2.53;;;1.60;;
11230;SDS011;5672;51.060;3.734;2023-04-24T14:03:19;3.00;;;1.30;;
11230;SDS011;5672;51.060;3.734;2023-04-24T14:05:45;4.13;;;1.37;;
11230;SDS011;5672;51.060;3.734;2023-04-24T14:08:11;2.47;;;1.20;;
11230;SDS011;5672;51.060;3.734;2023-04-24T14:10:37;3.37;;;1.77;;
11230;SDS011;5672;51.060;3.734;2023-04-24T14:13:03;2.53;;;1.40;;
11230;SDS011;5672;51.060;3.734;2023-04-24T14:15:29;2.73;;;1.17;;
11230;SDS011;5672;51.060;3.734;2023-04-24T14:17:55;1.83;;;1.10;;
11230;SDS011;5672;51.060;3.734;2023-04-24T14:20:21;3.30;;;1.50;;
11230;SDS011;5672;51.060;3.734;2023-04-24T14:22:47;1.73;;;1.60;;
11230;SDS011;5672;51.060;3.734;2023-04-24T14:25:13;2.53;;;1.73;;
11230;SDS011;5672;51.060;3.734;2023-04-24T14:27:40;1.63;;;1.53;;
11230;SDS011;5672;51.060;3.734;2023-04-24T14:30:06;2.67;;;1.50;;
11230;SDS011;5672;51.060;3.734;2023-04-24T14:32:32;4.57;;;1.57;;
11230;SDS011;5672;51.060;3.734;2023-04-24T14:34:58;1.63;;;1.30;;
11230;SDS011;5672;51.060;3.734;2023-04-24T14:37:24;1.47;;;1.20;;
11230;SDS011;5672;51.060;3.734;2023-04-24T14:39:50;1.57;;;1.40;;
11230;SDS011;5672;51.060;3.734;2023-04-24T14:42:16;1.93;;;1.30;;
11230;SDS011;5672;51.060;3.734;2023-04-24T14:44:42;6.40;;;1.40;;
11230;SDS011;5672;51.060;3.734;2023-04-24T14:47:08;2.87;;;1.47;;
11230;SDS011;5672;51.060;3.734;2023-04-24T14:49:35;1.93;;;1.33;;
11230;SDS011;5672;51.060;3.734;2023-04-24T14:52:00;1.90;;;1.53;;
11230;SDS011;5672;51.060;3.734;2023-04-24T14:54:27;2.23;;;1.77;;
11230;SDS011;5672;51.060;3.734;2023-04-24T14:56:54;2.73;;;1.80;;